Time;durP1;ratioP1;P1;durP2;ratioP2;P2;SDS_P1;SDS_P2;PMS_P1;PMS_P2;Temp;Humidity;BMP_temperature;BMP_pressure;BME280_temperature;BME280_humidity;BME280_pressure;Samples;Min_cycle;Max_cycle;Signal;HPM_P1;HPM_P2
2023/04/20 00:03:43;;;;;;;30.50;20.30;;;;;;;7.00;81.75;101362.20;108244;1263;73173;-89
2023/04/20 00:07:30;;;;;;;23.60;19.50;;;;;;;7.00;81.78;101363.75;108235;1261;59198;-89
2023/04/20 00:11:17;;;;;;;26.80;20.40;;;;;;;7.00;81.81;101359.11;108236;1263;61206;-89
2023/04/20 00:15:05;;;;;;;24.40;19.20;;;;;;;6.98;81.79;101359.95;107408;1270;74207;-89
2023/04/20 00:18:52;;;;;;;30.20;20.10;;;;;;;6.98;81.84;101364.92;107364;1274;68251;-89
2023/04/20 00:22:39;;;;;;;26.00;20.00;;;;;;;6.98;81.89;101369.39;107559;1270;70129;-88
2023/04/20 00:26:26;;;;;;;27.50;20.60;;;;;;;6.99;81.86;101373.33;107662;1271;61365;-89
2023/04/20 00:30:14;;;;;;;24.60;19.40;;;;;;;7.00;81.94;101380.55;107598;1271;61328;-89
2023/04/20 00:34:01;;;;;;;29.40;21.60;;;;;;;7.00;81.94;101377.29;106917;1282;73196;-89
2023/04/20 00:37:48;;;;;;;28.50;19.80;;;;;;;7.00;81.99;101374.55;106825;1281;67186;-89
2023/04/20 00:41:35;;;;;;;28.00;20.20;;;;;;;7.02;81.97;101375.59;106944;1277;71117;-89
2023/04/20 00:45:22;;;;;;;24.00;18.90;;;;;;;7.03;82.06;101378.00;107094;1277;60542;-89
2023/04/20 00:49:09;;;;;;;27.90;20.20;;;;;;;7.04;82.12;101375.27;106211;1286;61283;-89
2023/04/20 00:52:55;;;;;;;25.70;19.00;;;;;;;7.04;82.05;101372.36;107137;1280;74599;-88
2023/04/20 00:56:42;;;;;;;24.50;19.30;;;;;;;7.05;82.10;101374.77;106953;1280;67259;-89
2023/04/20 01:00:30;;;;;;;27.60;21.20;;;;;;;7.06;82.12;101377.00;106903;1279;72378;-89
2023/04/20 01:04:16;;;;;;;25.10;19.70;;;;;;;7.07;82.15;101374.11;107037;1280;61144;-89
2023/04/20 01:08:03;;;;;;;30.20;20.60;;;;;;;7.07;82.15;101370.52;107080;1280;61388;-89
2023/04/20 01:11:50;;;;;;;30.00;20.60;;;;;;;7.08;82.20;101372.23;107392;1271;73461;-89
2023/04/20 01:15:44;;;;;;;25.50;20.00;;;;;;;7.09;82.23;101371.04;107560;1271;69843;-89
2023/04/20 01:19:31;;;;;;;32.90;20.90;;;;;;;7.08;82.21;101368.11;106894;1282;70976;-88
2023/04/20 01:23:27;;;;;;;28.30;20.60;;;;;;;7.08;82.26;101369.48;107173;1278;61024;-89
2023/04/20 01:27:15;;;;;;;25.50;19.70;;;;;;;7.09;82.29;101364.87;107453;1270;61156;-88
2023/04/20 01:31:00;;;;;;;26.80;19.90;;;;;;;7.09;82.33;101358.18;107322;1271;73229;-89
2023/04/20 01:34:47;;;;;;;25.50;20.30;;;;;;;7.10;82.30;101356.82;107535;1271;70051;-89
2023/04/20 01:38:37;;;;;;;25.60;20.00;;;;;;;7.09;82.28;101352.88;103518;1270;72626;-89
2023/04/20 01:42:01;;;;;;;25.80;20.30;;;;;;;7.09;82.19;101353.04;108557;1261;59803;-89
2023/04/20 01:48:03;;;;;;;;;;;;;;;7.07;82.25;101353.20;108491;1263;65945;-89
2023/04/20 01:51:56;;;;;;;27.20;18.90;;;;;;;7.06;82.27;101347.35;107728;1274;71064;-89
2023/04/20 01:55:43;;;;;;;24.90;19.20;;;;;;;7.04;82.35;101347.33;107498;1279;61322;-89
2023/04/20 01:59:30;;;;;;;26.30;20.00;;;;;;;7.04;82.35;101345.61;107116;1274;61242;-89
2023/04/20 02:03:17;;;;;;;30.00;20.20;;;;;;;7.04;82.36;101340.81;107407;1274;73273;-89
2023/04/20 02:07:04;;;;;;;30.00;18.80;;;;;;;7.05;82.42;101339.80;107191;1273;67070;-89
2023/04/20 02:10:51;;;;;;;27.10;20.50;;;;;;;7.06;82.43;101346.67;107100;1274;73446;-89
2023/04/20 02:14:37;;;;;;;28.60;20.70;;;;;;;7.07;82.56;101345.30;107606;1273;62526;-89
2023/04/20 02:18:24;;;;;;;27.10;20.60;;;;;;;7.06;82.47;101347.02;107140;1277;60113;-89
2023/04/20 02:22:11;;;;;;;23.60;19.20;;;;;;;7.05;82.51;101349.05;107267;1274;75918;-89
2023/04/20 02:25:59;;;;;;;26.50;20.10;;;;;;;7.03;82.53;101344.57;107553;1274;67231;-89
2023/04/20 02:29:46;;;;;;;28.90;20.90;;;;;;;7.01;82.53;101341.12;107817;1268;72938;-88
2023/04/20 02:33:33;;;;;;;25.60;20.70;;;;;;;7.01;82.64;101344.21;108387;1261;59783;-88
2023/04/20 02:37:19;;;;;;;25.20;18.50;;;;;;;7.02;82.58;101346.63;108442;1262;61061;-89
2023/04/20 02:41:06;;;;;;;27.10;20.30;;;;;;;7.02;82.61;101347.31;108500;1263;73262;-88
2023/04/20 02:44:53;;;;;;;21.90;18.30;;;;;;;7.03;82.63;101350.40;107661;1270;67058;-88
2023/04/20 02:48:40;;;;;;;26.50;19.00;;;;;;;6.99;82.51;101351.39;107562;1271;71165;-89
2023/04/20 02:52:27;;;;;;;23.00;18.40;;;;;;;6.92;82.45;101346.17;107009;1280;61138;-89
2023/04/20 02:56:14;;;;;;;22.60;19.20;;;;;;;6.85;82.46;101350.04;107332;1277;61239;-89
2023/04/20 03:00:01;;;;;;;22.70;17.70;;;;;;;6.78;82.47;101350.14;107271;1277;72273;-89
2023/04/20 03:03:48;;;;;;;22.30;17.90;;;;;;;6.73;82.52;101352.33;107309;1277;67383;-89
2023/04/20 03:07:34;;;;;;;21.90;16.30;;;;;;;6.67;82.45;101352.77;107279;1277;72820;-89
2023/04/20 03:14:00;;;;;;;28.30;18.40;;;;;;;6.52;82.43;101355.84;108507;1260;61133;-89
2023/04/20 03:17:49;;;;;;;22.90;17.30;;;;;;;6.41;82.53;101353.13;107733;1270;74343;-89
2023/04/20 03:21:36;;;;;;;27.80;17.90;;;;;;;6.35;82.59;101351.00;107395;1276;67384;-89
2023/04/20 03:25:26;;;;;;;26.00;19.10;;;;;;;6.30;82.58;101348.02;107294;1276;72431;-89
2023/04/20 03:29:13;;;;;;;29.00;21.70;;;;;;;6.25;82.60;101349.67;106750;1282;61133;-89
2023/04/20 03:33:01;;;;;;;29.10;21.40;;;;;;;6.18;82.66;101350.30;105971;1289;61427;-89
2023/04/20 03:36:48;;;;;;;23.50;19.00;;;;;;;6.15;82.64;101355.21;106221;1288;73087;-89
2023/04/20 03:40:35;;;;;;;31.70;21.00;;;;;;;6.07;82.49;101368.11;106197;1287;68542;-89
2023/04/20 03:44:21;;;;;;;28.90;16.20;;;;;;;6.02;82.39;101371.29;106137;1291;71135;-89
2023/04/20 03:48:10;;;;;;;33.90;16.30;;;;;;;5.96;82.39;101366.58;106159;1288;60390;-89
2023/04/20 03:52:04;;;;;;;22.40;18.70;;;;;;;5.90;82.41;101368.54;106078;1288;59847;-89
2023/04/20 03:55:56;;;;;;;17.90;16.00;;;;;;;5.84;82.48;101372.52;106152;1287;77149;-89
2023/04/20 04:02:26;;;;;;;25.60;15.70;;;;;;;5.79;82.53;101377.58;108567;1260;72461;-89
2023/04/20 04:06:13;;;;;;;19.10;16.70;;;;;;;5.79;82.57;101375.69;108390;1259;61077;-89
2023/04/20 04:10:02;;;;;;;16.60;12.00;;;;;;;5.76;82.53;101376.66;108403;1260;61142;-89
2023/04/20 13:43:59;;;;;;;10.60;4.90;;;;;;;16.97;57.28;101349.86;108417;1260;66270;-90
2023/04/20 13:47:45;;;;;;;7.20;4.70;;;;;;;16.93;56.86;101346.33;107955;1268;71251;-90
2023/04/20 13:51:38;;;;;;;9.00;4.30;;;;;;;16.91;57.37;101345.67;107896;1270;59629;-89
2023/04/20 13:57:58;;;;;;;14.70;5.00;;;;;;;16.95;57.18;101348.00;108631;1265;74433;-90
2023/04/20 14:04:24;;;;;;;19.60;11.30;;;;;;;16.94;57.10;101346.63;108701;1260;72113;-90
2023/04/20 14:08:22;;;;;;;19.80;5.30;;;;;;;16.95;56.87;101346.08;108208;1260;60970;-90
2023/04/20 15:20:28;;;;;;;9.20;4.10;;;;;;;17.02;57.03;101332.81;108620;1261;74465;-90
2023/04/20 15:24:21;;;;;;;17.60;4.00;;;;;;;17.06;57.44;101331.98;107737;1270;69202;-91
2023/04/20 15:40:45;;;;;;;12.20;2.60;;;;;;;16.75;57.00;101334.84;108358;1261;71901;-90
2023/04/20 15:49:18;;;;;;;13.90;3.10;;;;;;;16.42;56.94;101336.66;108388;1260;73694;-90
2023/04/20 15:53:02;;;;;;;11.00;3.30;;;;;;;16.31;57.00;101338.57;107627;1270;70121;-90
2023/04/20 16:09:12;;;;;;;22.30;3.50;;;;;;;15.84;56.97;101339.15;108565;1260;72070;-90
2023/04/20 16:12:59;;;;;;;8.10;2.70;;;;;;;15.72;57.11;101338.43;107778;1270;61298;-90
2023/04/20 16:19:20;;;;;;;15.60;3.80;;;;;;;15.53;57.13;101334.73;108404;1263;73536;-90
2023/04/20 16:23:12;;;;;;;13.00;4.10;;;;;;;15.43;57.30;101338.48;108413;1263;66213;-90
2023/04/20 16:27:00;;;;;;;22.70;7.90;;;;;;;15.32;57.24;101335.44;107736;1268;72164;-90
2023/04/20 16:33:25;;;;;;;23.60;12.10;;;;;;;15.16;57.33;101329.89;108448;1261;61173;-90
2023/04/20 16:37:23;;;;;;;;;;;;;;;;;;;;;
2023/04/20 16:40:59;;;;;;;31.70;13.20;;;;;;;15.00;57.63;101337.95;107723;1270;68425;-90
2023/04/20 16:47:00;;;;;;;20.70;7.90;;;;;;;14.93;57.77;101334.80;108512;1260;59288;-90
2023/04/20 17:06:59;;;;;;;11.60;4.60;;;;;;;14.75;58.17;101335.88;108595;1260;73931;-90
